sensor_id;sensor_type;location;lat;lon;timestamp;P1;durP1;ratioP1;P2;durP2;ratioP2
42364;SDS011;28498;54.400;18.566;2023-03-03T00:00:05;27.73;;;11.73;;
42364;SDS011;28498;54.400;18.566;2023-03-03T00:02:33;30.88;;;12.77;;
42364;SDS011;28498;54.400;18.566;2023-03-03T00:05:00;23.73;;;10.25;;
42364;SDS011;28498;54.400;18.566;2023-03-03T00:07:27;29.75;;;12.23;;
42364;SDS011;28498;54.400;18.566;2023-03-03T00:09:54;27.88;;;12.23;;
42364;SDS011;28498;54.400;18.566;2023-03-03T00:12:28;30.20;;;12.35;;
42364;SDS011;28498;54.400;18.566;2023-03-03T00:14:56;28.58;;;12.73;;
42364;SDS011;28498;54.400;18.566;2023-03-03T00:17:27;29.67;;;12.15;;
42364;SDS011;28498;54.400;18.566;2023-03-03T00:19:56;25.58;;;10.50;;
42364;SDS011;28498;54.400;18.566;2023-03-03T00:22:30;27.75;;;12.00;;
42364;SDS011;28498;54.400;18.566;2023-03-03T00:27:50;22.48;;;9.40;;
42364;SDS011;28498;54.400;18.566;2023-03-03T00:30:26;24.08;;;9.10;;
42364;SDS011;28498;54.400;18.566;2023-03-03T00:32:53;24.13;;;11.32;;
42364;SDS011;28498;54.400;18.566;2023-03-03T00:40:36;27.67;;;10.60;;
42364;SDS011;28498;54.400;18.566;2023-03-03T00:53:37;27.25;;;9.95;;
42364;SDS011;28498;54.400;18.566;2023-03-03T00:56:04;25.35;;;11.00;;
42364;SDS011;28498;54.400;18.566;2023-03-03T00:58:31;25.25;;;10.82;;
42364;SDS011;28498;54.400;18.566;2023-03-03T01:00:58;22.38;;;9.45;;
42364;SDS011;28498;54.400;18.566;2023-03-03T01:03:25;22.17;;;10.32;;
42364;SDS011;28498;54.400;18.566;2023-03-03T01:05:53;19.98;;;9.55;;
42364;SDS011;28498;54.400;18.566;2023-03-03T01:08:20;25.13;;;9.18;;
42364;SDS011;28498;54.400;18.566;2023-03-03T01:10:49;20.50;;;9.73;;
42364;SDS011;28498;54.400;18.566;2023-03-03T01:13:18;19.75;;;9.15;;
42364;SDS011;28498;54.400;18.566;2023-03-03T01:15:47;22.40;;;10.27;;
42364;SDS011;28498;54.400;18.566;2023-03-03T01:18:14;21.20;;;9.07;;
42364;SDS011;28498;54.400;18.566;2023-03-03T01:20:41;18.35;;;8.20;;
42364;SDS011;28498;54.400;18.566;2023-03-03T01:23:08;18.95;;;7.28;;
42364;SDS011;28498;54.400;18.566;2023-03-03T01:25:35;18.05;;;7.32;;
42364;SDS011;28498;54.400;18.566;2023-03-03T01:28:03;17.08;;;7.60;;
42364;SDS011;28498;54.400;18.566;2023-03-03T01:30:30;18.08;;;8.55;;
42364;SDS011;28498;54.400;18.566;2023-03-03T01:32:57;16.55;;;7.22;;
42364;SDS011;28498;54.400;18.566;2023-03-03T01:35:24;16.60;;;7.53;;
42364;SDS011;28498;54.400;18.566;2023-03-03T01:37:51;17.35;;;8.00;;
42364;SDS011;28498;54.400;18.566;2023-03-03T01:40:20;16.13;;;8.18;;
42364;SDS011;28498;54.400;18.566;2023-03-03T01:42:50;13.02;;;6.70;;
42364;SDS011;28498;54.400;18.566;2023-03-03T01:47:50;14.13;;;7.10;;
42364;SDS011;28498;54.400;18.566;2023-03-03T01:53:13;14.73;;;7.00;;
42364;SDS011;28498;54.400;18.566;2023-03-03T01:55:44;18.63;;;8.30;;
42364;SDS011;28498;54.400;18.566;2023-03-03T01:58:14;17.63;;;8.05;;
42364;SDS011;28498;54.400;18.566;2023-03-03T02:00:56;18.08;;;8.88;;
42364;SDS011;28498;54.400;18.566;2023-03-03T02:03:27;18.63;;;8.10;;
42364;SDS011;28498;54.400;18.566;2023-03-03T02:05:59;15.07;;;6.95;;
42364;SDS011;28498;54.400;18.566;2023-03-03T02:11:37;18.77;;;8.40;;
42364;SDS011;28498;54.400;18.566;2023-03-03T02:14:05;18.33;;;7.90;;
42364;SDS011;28498;54.400;18.566;2023-03-03T02:16:33;20.60;;;10.07;;
42364;SDS011;28498;54.400;18.566;2023-03-03T02:19:00;18.73;;;7.68;;
42364;SDS011;28498;54.400;18.566;2023-03-03T02:21:27;20.67;;;9.13;;
42364;SDS011;28498;54.400;18.566;2023-03-03T02:26:25;18.52;;;7.30;;
42364;SDS011;28498;54.400;18.566;2023-03-03T02:28:53;20.48;;;9.48;;
42364;SDS011;28498;54.400;18.566;2023-03-03T02:31:22;19.08;;;8.77;;
42364;SDS011;28498;54.400;18.566;2023-03-03T02:33:52;19.88;;;9.20;;
42364;SDS011;28498;54.400;18.566;2023-03-03T02:38:50;15.32;;;7.70;;
42364;SDS011;28498;54.400;18.566;2023-03-03T02:44:01;18.25;;;7.97;;
42364;SDS011;28498;54.400;18.566;2023-03-03T02:46:34;21.92;;;9.32;;
42364;SDS011;28498;54.400;18.566;2023-03-03T02:49:04;15.50;;;7.75;;
42364;SDS011;28498;54.400;18.566;2023-03-03T02:51:32;20.85;;;9.95;;
42364;SDS011;28498;54.400;18.566;2023-03-03T02:54:00;21.15;;;9.82;;
42364;SDS011;28498;54.400;18.566;2023-03-03T02:56:27;18.40;;;8.82;;
42364;SDS011;28498;54.400;18.566;2023-03-03T02:58:54;23.02;;;9.35;;
42364;SDS011;28498;54.400;18.566;2023-03-03T03:01:21;21.65;;;10.10;;
42364;SDS011;28498;54.400;18.566;2023-03-03T03:03:48;20.88;;;9.23;;
42364;SDS011;28498;54.400;18.566;2023-03-03T03:06:15;20.92;;;8.40;;
42364;SDS011;28498;54.400;18.566;2023-03-03T03:08:42;18.13;;;8.10;;
42364;SDS011;28498;54.400;18.566;2023-03-03T03:11:09;22.33;;;9.18;;
42364;SDS011;28498;54.400;18.566;2023-03-03T03:13:36;19.48;;;8.95;;
42364;SDS011;28498;54.400;18.566;2023-03-03T03:16:04;21.42;;;8.95;;
42364;SDS011;28498;54.400;18.566;2023-03-03T03:18:31;22.15;;;9.70;;
42364;SDS011;28498;54.400;18.566;2023-03-03T03:21:04;20.33;;;9.50;;
42364;SDS011;28498;54.400;18.566;2023-03-03T03:23:35;19.95;;;8.38;;
42364;SDS011;28498;54.400;18.566;2023-03-03T03:26:03;21.02;;;9.32;;
42364;SDS011;28498;54.400;18.566;2023-03-03T03:28:31;18.20;;;8.13;;
42364;SDS011;28498;54.400;18.566;2023-03-03T03:30:58;21.42;;;9.15;;
42364;SDS011;28498;54.400;18.566;2023-03-03T03:33:25;22.60;;;9.00;;
42364;SDS011;28498;54.400;18.566;2023-03-03T03:35:53;19.90;;;8.48;;
42364;SDS011;28498;54.400;18.566;2023-03-03T03:38:21;19.88;;;8.65;;
42364;SDS011;28498;54.400;18.566;2023-03-03T03:40:49;21.73;;;9.13;;
42364;SDS011;28498;54.400;18.566;2023-03-03T03:43:16;19.73;;;8.55;;
42364;SDS011;28498;54.400;18.566;2023-03-03T03:45:43;22.67;;;8.93;;
42364;SDS011;28498;54.400;18.566;2023-03-03T03:48:10;18.17;;;9.18;;
42364;SDS011;28498;54.400;18.566;2023-03-03T03:50:37;20.58;;;8.77;;
42364;SDS011;28498;54.400;18.566;2023-03-03T03:53:05;24.10;;;10.48;;
42364;SDS011;28498;54.400;18.566;2023-03-03T03:55:32;23.00;;;9.23;;
42364;SDS011;28498;54.400;18.566;2023-03-03T03:57:59;21.02;;;8.52;;
42364;SDS011;28498;54.400;18.566;2023-03-03T04:00:26;20.45;;;9.15;;
42364;SDS011;28498;54.400;18.566;2023-03-03T04:05:42;20.67;;;8.40;;
42364;SDS011;28498;54.400;18.566;2023-03-03T04:08:09;25.60;;;8.23;;
42364;SDS011;28498;54.400;18.566;2023-03-03T04:10:36;24.75;;;8.50;;
42364;SDS011;28498;54.400;18.566;2023-03-03T04:13:04;19.23;;;9.55;;
42364;SDS011;28498;54.400;18.566;2023-03-03T04:15:30;21.92;;;9.25;;
42364;SDS011;28498;54.400;18.566;2023-03-03T04:17:58;21.27;;;9.23;;
42364;SDS011;28498;54.400;18.566;2023-03-03T04:20:25;25.25;;;10.82;;
42364;SDS011;28498;54.400;18.566;2023-03-03T04:22:52;22.00;;;9.82;;
42364;SDS011;28498;54.400;18.566;2023-03-03T04:25:19;21.80;;;9.93;;
42364;SDS011;28498;54.400;18.566;2023-03-03T04:27:46;24.98;;;9.48;;
42364;SDS011;28498;54.400;18.566;2023-03-03T04:30:14;23.92;;;10.05;;
42364;SDS011;28498;54.400;18.566;2023-03-03T04:32:41;26.45;;;10.77;;
42364;SDS011;28498;54.400;18.566;2023-03-03T04:35:09;23.75;;;9.93;;
42364;SDS011;28498;54.400;18.566;2023-03-03T04:37:36;18.98;;;7.68;;
42364;SDS011;28498;54.400;18.566;2023-03-03T04:40:05;24.95;;;8.48;;
42364;SDS011;28498;54.400;18.566;2023-03-03T04:42:33;21.27;;;9.23;;
42364;SDS011;28498;54.400;18.566;2023-03-03T04:45:00;21.38;;;9.65;;
42364;SDS011;28498;54.400;18.566;2023-03-03T04:47:28;23.42;;;10.13;;
42364;SDS011;28498;54.400;18.566;2023-03-03T04:49:55;19.98;;;9.00;;
42364;SDS011;28498;54.400;18.566;2023-03-03T04:52:22;23.33;;;9.18;;
42364;SDS011;28498;54.400;18.566;2023-03-03T04:54:49;22.67;;;9.32;;
42364;SDS011;28498;54.400;18.566;2023-03-03T04:57:16;21.92;;;8.85;;
42364;SDS011;28498;54.400;18.566;2023-03-03T04:59:42;20.65;;;8.93;;
42364;SDS011;28498;54.400;18.566;2023-03-03T05:02:09;21.77;;;8.35;;
42364;SDS011;28498;54.400;18.566;2023-03-03T05:04:38;23.08;;;9.32;;
42364;SDS011;28498;54.400;18.566;2023-03-03T05:07:05;21.80;;;8.57;;
42364;SDS011;28498;54.400;18.566;2023-03-03T05:09:32;22.80;;;9.68;;
42364;SDS011;28498;54.400;18.566;2023-03-03T05:11:59;24.00;;;10.73;;
42364;SDS011;28498;54.400;18.566;2023-03-03T05:14:26;19.60;;;9.05;;
42364;SDS011;28498;54.400;18.566;2023-03-03T05:16:53;21.40;;;9.40;;
42364;SDS011;28498;54.400;18.566;2023-03-03T05:19:20;23.08;;;8.98;;
42364;SDS011;28498;54.400;18.566;2023-03-03T05:21:47;24.63;;;9.88;;
42364;SDS011;28498;54.400;18.566;2023-03-03T05:24:14;16.33;;;6.93;;
42364;SDS011;28498;54.400;18.566;2023-03-03T05:26:41;25.30;;;10.25;;
42364;SDS011;28498;54.400;18.566;2023-03-03T05:29:08;18.48;;;8.93;;
42364;SDS011;28498;54.400;18.566;2023-03-03T05:31:35;20.08;;;10.35;;
42364;SDS011;28498;54.400;18.566;2023-03-03T05:34:02;22.08;;;9.70;;
42364;SDS011;28498;54.400;18.566;2023-03-03T05:36:29;19.35;;;7.95;;
42364;SDS011;28498;54.400;18.566;2023-03-03T05:38:56;19.10;;;10.05;;
42364;SDS011;28498;54.400;18.566;2023-03-03T05:41:23;20.25;;;9.43;;
42364;SDS011;28498;54.400;18.566;2023-03-03T05:43:50;22.63;;;9.32;;
42364;SDS011;28498;54.400;18.566;2023-03-03T05:46:17;22.90;;;9.75;;
42364;SDS011;28498;54.400;18.566;2023-03-03T05:48:45;20.55;;;8.40;;
42364;SDS011;28498;54.400;18.566;2023-03-03T05:51:12;23.55;;;9.40;;
42364;SDS011;28498;54.400;18.566;2023-03-03T05:53:39;18.33;;;8.48;;
42364;SDS011;28498;54.400;18.566;2023-03-03T05:56:06;21.23;;;9.43;;
42364;SDS011;28498;54.400;18.566;2023-03-03T05:58:33;21.63;;;9.10;;
42364;SDS011;28498;54.400;18.566;2023-03-03T06:01:00;18.05;;;8.82;;
42364;SDS011;28498;54.400;18.566;2023-03-03T06:03:27;20.73;;;10.07;;
42364;SDS011;28498;54.400;18.566;2023-03-03T06:05:54;19.55;;;9.07;;
42364;SDS011;28498;54.400;18.566;2023-03-03T06:08:21;17.95;;;8.02;;
42364;SDS011;28498;54.400;18.566;2023-03-03T06:10:48;23.67;;;9.15;;
42364;SDS011;28498;54.400;18.566;2023-03-03T06:13:15;20.48;;;9.18;;
42364;SDS011;28498;54.400;18.566;2023-03-03T06:15:42;20.92;;;9.80;;
42364;SDS011;28498;54.400;18.566;2023-03-03T06:18:09;20.50;;;8.93;;
42364;SDS011;28498;54.400;18.566;2023-03-03T06:20:36;22.40;;;8.70;;
42364;SDS011;28498;54.400;18.566;2023-03-03T06:23:04;17.33;;;8.38;;
42364;SDS011;28498;54.400;18.566;2023-03-03T06:25:31;17.85;;;7.53;;
42364;SDS011;28498;54.400;18.566;2023-03-03T06:28:01;16.83;;;7.68;;
42364;SDS011;28498;54.400;18.566;2023-03-03T06:30:29;14.68;;;7.30;;
42364;SDS011;28498;54.400;18.566;2023-03-03T06:32:56;15.35;;;8.30;;
42364;SDS011;28498;54.400;18.566;2023-03-03T06:35:23;13.77;;;7.55;;
42364;SDS011;28498;54.400;18.566;2023-03-03T06:37:50;16.77;;;8.23;;
42364;SDS011;28498;54.400;18.566;2023-03-03T06:40:17;14.82;;;7.25;;
42364;SDS011;28498;54.400;18.566;2023-03-03T06:42:44;15.77;;;8.52;;
42364;SDS011;28498;54.400;18.566;2023-03-03T06:45:12;13.27;;;7.35;;
42364;SDS011;28498;54.400;18.566;2023-03-03T06:47:39;14.60;;;7.82;;
42364;SDS011;28498;54.400;18.566;2023-03-03T06:50:07;14.70;;;7.35;;
42364;SDS011;28498;54.400;18.566;2023-03-03T06:52:37;16.48;;;6.93;;
42364;SDS011;28498;54.400;18.566;2023-03-03T06:55:11;14.32;;;7.15;;
42364;SDS011;28498;54.400;18.566;2023-03-03T06:57:43;12.30;;;6.47;;
42364;SDS011;28498;54.400;18.566;2023-03-03T07:02:43;12.02;;;6.72;;
42364;SDS011;28498;54.400;18.566;2023-03-03T07:05:12;13.88;;;7.70;;
42364;SDS011;28498;54.400;18.566;2023-03-03T07:07:42;12.52;;;5.70;;
42364;SDS011;28498;54.400;18.566;2023-03-03T07:10:17;11.27;;;6.60;;
42364;SDS011;28498;54.400;18.566;2023-03-03T07:12:51;11.88;;;6.70;;
42364;SDS011;28498;54.400;18.566;2023-03-03T07:15:27;10.50;;;5.90;;
42364;SDS011;28498;54.400;18.566;2023-03-03T07:18:00;13.35;;;7.72;;
42364;SDS011;28498;54.400;18.566;2023-03-03T07:20:40;13.50;;;7.72;;
42364;SDS011;28498;54.400;18.566;2023-03-03T07:23:14;13.80;;;6.85;;
42364;SDS011;28498;54.400;18.566;2023-03-03T07:25:44;13.40;;;6.80;;
42364;SDS011;28498;54.400;18.566;2023-03-03T07:30:50;13.73;;;6.00;;
42364;SDS011;28498;54.400;18.566;2023-03-03T07:35:51;15.02;;;7.05;;
42364;SDS011;28498;54.400;18.566;2023-03-03T07:38:37;14.98;;;7.15;;
42364;SDS011;28498;54.400;18.566;2023-03-03T07:41:17;15.48;;;7.50;;
42364;SDS011;28498;54.400;18.566;2023-03-03T07:46:27;12.35;;;6.35;;
42364;SDS011;28498;54.400;18.566;2023-03-03T07:49:19;14.15;;;7.63;;
42364;SDS011;28498;54.400;18.566;2023-03-03T07:51:53;12.07;;;6.50;;
42364;SDS011;28498;54.400;18.566;2023-03-03T07:54:35;12.75;;;7.13;;
42364;SDS011;28498;54.400;18.566;2023-03-03T08:05:43;16.15;;;7.47;;
42364;SDS011;28498;54.400;18.566;2023-03-03T08:11:02;10.98;;;5.95;;
42364;SDS011;28498;54.400;18.566;2023-03-03T08:18:40;11.00;;;6.18;;
42364;SDS011;28498;54.400;18.566;2023-03-03T08:21:23;17.17;;;6.93;;
42364;SDS011;28498;54.400;18.566;2023-03-03T08:23:51;13.55;;;7.55;;
42364;SDS011;28498;54.400;18.566;2023-03-03T08:26:19;11.90;;;6.00;;
42364;SDS011;28498;54.400;18.566;2023-03-03T08:28:47;16.02;;;7.90;;
42364;SDS011;28498;54.400;18.566;2023-03-03T08:31:14;11.48;;;6.32;;
42364;SDS011;28498;54.400;18.566;2023-03-03T08:36:27;12.65;;;6.13;;
42364;SDS011;28498;54.400;18.566;2023-03-03T08:38:53;11.32;;;6.55;;
42364;SDS011;28498;54.400;18.566;2023-03-03T08:41:20;10.02;;;5.10;;
42364;SDS011;28498;54.400;18.566;2023-03-03T08:43:47;13.57;;;6.85;;
42364;SDS011;28498;54.400;18.566;2023-03-03T08:46:14;14.15;;;6.85;;
42364;SDS011;28498;54.400;18.566;2023-03-03T08:48:41;8.93;;;5.05;;
42364;SDS011;28498;54.400;18.566;2023-03-03T08:51:08;10.70;;;6.10;;
42364;SDS011;28498;54.400;18.566;2023-03-03T08:53:35;10.40;;;5.68;;
42364;SDS011;28498;54.400;18.566;2023-03-03T08:56:04;13.07;;;6.13;;
42364;SDS011;28498;54.400;18.566;2023-03-03T08:58:32;12.63;;;6.28;;
42364;SDS011;28498;54.400;18.566;2023-03-03T09:01:02;12.02;;;5.65;;
42364;SDS011;28498;54.400;18.566;2023-03-03T09:03:30;10.38;;;6.15;;
42364;SDS011;28498;54.400;18.566;2023-03-03T09:05:57;16.20;;;7.10;;
42364;SDS011;28498;54.400;18.566;2023-03-03T09:08:24;15.43;;;7.10;;
42364;SDS011;28498;54.400;18.566;2023-03-03T09:10:51;14.15;;;6.07;;
42364;SDS011;28498;54.400;18.566;2023-03-03T09:13:18;15.23;;;6.85;;
42364;SDS011;28498;54.400;18.566;2023-03-03T09:15:45;10.10;;;5.70;;
42364;SDS011;28498;54.400;18.566;2023-03-03T09:20:46;12.38;;;6.45;;
42364;SDS011;28498;54.400;18.566;2023-03-03T09:25:49;12.48;;;6.18;;
42364;SDS011;28498;54.400;18.566;2023-03-03T09:30:51;11.25;;;6.22;;
42364;SDS011;28498;54.400;18.566;2023-03-03T09:36:18;11.45;;;6.07;;
42364;SDS011;28498;54.400;18.566;2023-03-03T09:39:10;12.45;;;6.57;;
42364;SDS011;28498;54.400;18.566;2023-03-03T09:50:46;14.57;;;6.10;;
42364;SDS011;28498;54.400;18.566;2023-03-03T10:14:21;13.55;;;6.15;;
42364;SDS011;28498;54.400;18.566;2023-03-03T10:17:31;11.95;;;6.13;;
42364;SDS011;28498;54.400;18.566;2023-03-03T10:20:06;10.38;;;5.50;;
42364;SDS011;28498;54.400;18.566;2023-03-03T10:22:51;11.55;;;5.65;;
42364;SDS011;28498;54.400;18.566;2023-03-03T10:28:12;10.80;;;5.68;;
42364;SDS011;28498;54.400;18.566;2023-03-03T10:33:37;9.93;;;5.07;;
42364;SDS011;28498;54.400;18.566;2023-03-03T10:39:15;12.18;;;5.10;;
42364;SDS011;28498;54.400;18.566;2023-03-03T11:01:51;12.40;;;5.28;;
42364;SDS011;28498;54.400;18.566;2023-03-03T11:07:43;10.85;;;4.95;;
42364;SDS011;28498;54.400;18.566;2023-03-03T11:10:04;10.50;;;4.63;;
42364;SDS011;28498;54.400;18.566;2023-03-03T11:21:37;8.68;;;4.63;;
42364;SDS011;28498;54.400;18.566;2023-03-03T11:36:07;8.13;;;4.20;;
42364;SDS011;28498;54.400;18.566;2023-03-03T11:38:58;7.95;;;4.05;;
42364;SDS011;28498;54.400;18.566;2023-03-03T11:44:10;6.72;;;4.82;;
42364;SDS011;28498;54.400;18.566;2023-03-03T11:52:47;7.70;;;4.03;;
42364;SDS011;28498;54.400;18.566;2023-03-03T11:55:35;8.00;;;4.00;;
42364;SDS011;28498;54.400;18.566;2023-03-03T12:03:39;7.25;;;2.80;;
42364;SDS011;28498;54.400;18.566;2023-03-03T12:08:56;5.57;;;2.78;;
42364;SDS011;28498;54.400;18.566;2023-03-03T12:11:48;4.60;;;3.20;;
42364;SDS011;28498;54.400;18.566;2023-03-03T12:20:36;7.35;;;2.63;;
42364;SDS011;28498;54.400;18.566;2023-03-03T12:23:34;5.30;;;2.50;;
42364;SDS011;28498;54.400;18.566;2023-03-03T12:26:29;6.93;;;2.10;;
42364;SDS011;28498;54.400;18.566;2023-03-03T12:29:06;4.00;;;2.30;;
42364;SDS011;28498;54.400;18.566;2023-03-03T12:34:43;3.63;;;1.73;;
42364;SDS011;28498;54.400;18.566;2023-03-03T12:42:35;3.83;;;1.70;;
42364;SDS011;28498;54.400;18.566;2023-03-03T13:02:34;7.28;;;1.73;;
42364;SDS011;28498;54.400;18.566;2023-03-03T13:05:26;4.00;;;1.73;;
42364;SDS011;28498;54.400;18.566;2023-03-03T13:07:58;3.45;;;1.55;;
42364;SDS011;28498;54.400;18.566;2023-03-03T13:11:00;4.07;;;1.70;;
42364;SDS011;28498;54.400;18.566;2023-03-03T13:17:13;3.60;;;1.80;;
42364;SDS011;28498;54.400;18.566;2023-03-03T13:19:45;5.60;;;1.70;;
42364;SDS011;28498;54.400;18.566;2023-03-03T13:30:39;5.22;;;2.17;;
42364;SDS011;28498;54.400;18.566;2023-03-03T13:36:09;6.40;;;1.58;;
42364;SDS011;28498;54.400;18.566;2023-03-03T13:38:40;4.05;;;1.40;;
42364;SDS011;28498;54.400;18.566;2023-03-03T13:44:03;3.05;;;1.40;;
42364;SDS011;28498;54.400;18.566;2023-03-03T13:49:37;4.30;;;1.55;;
42364;SDS011;28498;54.400;18.566;2023-03-03T13:52:22;2.35;;;1.20;;
42364;SDS011;28498;54.400;18.566;2023-03-03T13:58:10;7.45;;;1.67;;
42364;SDS011;28498;54.400;18.566;2023-03-03T14:03:32;5.13;;;1.65;;
42364;SDS011;28498;54.400;18.566;2023-03-03T14:06:22;3.72;;;1.58;;
42364;SDS011;28498;54.400;18.566;2023-03-03T14:11:22;3.75;;;1.60;;
42364;SDS011;28498;54.400;18.566;2023-03-03T14:17:30;3.95;;;1.50;;
42364;SDS011;28498;54.400;18.566;2023-03-03T14:19:43;5.13;;;1.70;;
42364;SDS011;28498;54.400;18.566;2023-03-03T14:24:58;6.68;;;1.30;;
42364;SDS011;28498;54.400;18.566;2023-03-03T14:35:41;4.22;;;1.67;;
42364;SDS011;28498;54.400;18.566;2023-03-03T14:38:21;4.75;;;1.60;;
42364;SDS011;28498;54.400;18.566;2023-03-03T14:41:02;6.32;;;1.42;;
42364;SDS011;28498;54.400;18.566;2023-03-03T14:43:39;5.25;;;1.60;;
42364;SDS011;28498;54.400;18.566;2023-03-03T14:49:03;3.38;;;1.55;;
42364;SDS011;28498;54.400;18.566;2023-03-03T14:54:18;4.32;;;2.00;;
42364;SDS011;28498;54.400;18.566;2023-03-03T14:57:00;3.45;;;1.70;;
42364;SDS011;28498;54.400;18.566;2023-03-03T14:59:32;3.72;;;1.70;;
42364;SDS011;28498;54.400;18.566;2023-03-03T15:04:39;5.13;;;1.75;;
42364;SDS011;28498;54.400;18.566;2023-03-03T15:07:14;6.47;;;2.53;;
42364;SDS011;28498;54.400;18.566;2023-03-03T15:09:49;5.65;;;2.40;;
42364;SDS011;28498;54.400;18.566;2023-03-03T15:12:20;3.85;;;1.85;;
42364;SDS011;28498;54.400;18.566;2023-03-03T15:20:33;4.70;;;2.03;;
42364;SDS011;28498;54.400;18.566;2023-03-03T15:37:05;6.38;;;2.20;;
42364;SDS011;28498;54.400;18.566;2023-03-03T15:42:06;4.70;;;2.17;;
42364;SDS011;28498;54.400;18.566;2023-03-03T15:55:42;5.97;;;2.90;;
42364;SDS011;28498;54.400;18.566;2023-03-03T15:58:44;5.50;;;3.40;;
42364;SDS011;28498;54.400;18.566;2023-03-03T16:01:41;6.40;;;3.25;;
42364;SDS011;28498;54.400;18.566;2023-03-03T16:04:26;7.05;;;3.38;;
42364;SDS011;28498;54.400;18.566;2023-03-03T16:07:00;6.30;;;2.80;;
42364;SDS011;28498;54.400;18.566;2023-03-03T16:12:27;8.20;;;3.20;;
42364;SDS011;28498;54.400;18.566;2023-03-03T16:15:15;6.85;;;3.15;;
42364;SDS011;28498;54.400;18.566;2023-03-03T16:29:09;8.68;;;4.53;;
42364;SDS011;28498;54.400;18.566;2023-03-03T16:35:13;7.93;;;4.25;;
42364;SDS011;28498;54.400;18.566;2023-03-03T16:46:19;13.50;;;4.88;;
42364;SDS011;28498;54.400;18.566;2023-03-03T16:57:12;11.52;;;4.75;;
42364;SDS011;28498;54.400;18.566;2023-03-03T16:59:51;10.93;;;5.05;;
42364;SDS011;28498;54.400;18.566;2023-03-03T17:19:35;7.93;;;4.00;;
42364;SDS011;28498;54.400;18.566;2023-03-03T17:22:11;7.43;;;4.22;;
42364;SDS011;28498;54.400;18.566;2023-03-03T17:25:22;13.02;;;5.63;;
42364;SDS011;28498;54.400;18.566;2023-03-03T17:33:33;12.05;;;6.10;;
42364;SDS011;28498;54.400;18.566;2023-03-03T17:41:50;9.40;;;5.30;;
42364;SDS011;28498;54.400;18.566;2023-03-03T17:47:10;17.05;;;6.88;;
42364;SDS011;28498;54.400;18.566;2023-03-03T18:04:16;13.75;;;6.25;;
42364;SDS011;28498;54.400;18.566;2023-03-03T18:09:49;14.25;;;7.05;;
42364;SDS011;28498;54.400;18.566;2023-03-03T18:21:21;18.33;;;8.27;;
42364;SDS011;28498;54.400;18.566;2023-03-03T18:23:53;16.98;;;8.63;;
42364;SDS011;28498;54.400;18.566;2023-03-03T18:26:52;15.93;;;7.65;;
42364;SDS011;28498;54.400;18.566;2023-03-03T18:29:24;19.27;;;8.77;;
42364;SDS011;28498;54.400;18.566;2023-03-03T18:42:38;15.73;;;7.95;;
42364;SDS011;28498;54.400;18.566;2023-03-03T18:50:44;17.70;;;8.85;;
42364;SDS011;28498;54.400;18.566;2023-03-03T18:55:56;17.77;;;7.82;;
42364;SDS011;28498;54.400;18.566;2023-03-03T19:03:36;13.65;;;6.65;;
42364;SDS011;28498;54.400;18.566;2023-03-03T19:06:30;15.35;;;8.32;;
42364;SDS011;28498;54.400;18.566;2023-03-03T19:12:19;16.23;;;7.28;;
42364;SDS011;28498;54.400;18.566;2023-03-03T19:17:57;16.85;;;7.18;;
42364;SDS011;28498;54.400;18.566;2023-03-03T19:23:23;15.68;;;8.27;;
42364;SDS011;28498;54.400;18.566;2023-03-03T19:28:57;12.98;;;7.20;;
42364;SDS011;28498;54.400;18.566;2023-03-03T19:42:47;13.32;;;7.47;;
42364;SDS011;28498;54.400;18.566;2023-03-03T19:45:44;10.77;;;5.95;;
42364;SDS011;28498;54.400;18.566;2023-03-03T19:51:08;14.73;;;6.35;;
42364;SDS011;28498;54.400;18.566;2023-03-03T20:13:27;10.70;;;5.28;;
42364;SDS011;28498;54.400;18.566;2023-03-03T20:16:10;10.65;;;5.55;;
42364;SDS011;28498;54.400;18.566;2023-03-03T20:21:32;11.43;;;6.32;;
42364;SDS011;28498;54.400;18.566;2023-03-03T20:32:06;10.48;;;5.35;;
42364;SDS011;28498;54.400;18.566;2023-03-03T20:40:22;15.35;;;6.55;;
42364;SDS011;28498;54.400;18.566;2023-03-03T20:42:59;11.25;;;4.88;;
42364;SDS011;28498;54.400;18.566;2023-03-03T20:48:37;10.30;;;5.03;;
42364;SDS011;28498;54.400;18.566;2023-03-03T20:59:47;9.43;;;4.97;;
42364;SDS011;28498;54.400;18.566;2023-03-03T21:02:40;7.30;;;4.45;;
42364;SDS011;28498;54.400;18.566;2023-03-03T21:05:18;7.60;;;4.72;;
42364;SDS011;28498;54.400;18.566;2023-03-03T21:10:25;7.97;;;4.57;;
42364;SDS011;28498;54.400;18.566;2023-03-03T21:12:54;11.95;;;5.38;;
42364;SDS011;28498;54.400;18.566;2023-03-03T21:15:30;5.72;;;3.88;;
42364;SDS011;28498;54.400;18.566;2023-03-03T21:17:59;6.90;;;4.32;;
42364;SDS011;28498;54.400;18.566;2023-03-03T21:20:44;7.65;;;4.38;;
42364;SDS011;28498;54.400;18.566;2023-03-03T21:23:11;9.75;;;5.03;;
42364;SDS011;28498;54.400;18.566;2023-03-03T21:28:25;10.27;;;5.00;;
42364;SDS011;28498;54.400;18.566;2023-03-03T21:31:10;10.35;;;4.90;;
42364;SDS011;28498;54.400;18.566;2023-03-03T21:33:55;11.27;;;5.18;;
42364;SDS011;28498;54.400;18.566;2023-03-03T21:39:18;9.50;;;4.85;;
42364;SDS011;28498;54.400;18.566;2023-03-03T21:42:04;9.10;;;5.30;;
42364;SDS011;28498;54.400;18.566;2023-03-03T21:44:32;8.15;;;5.18;;
42364;SDS011;28498;54.400;18.566;2023-03-03T21:49:49;11.68;;;5.95;;
42364;SDS011;28498;54.400;18.566;2023-03-03T21:52:18;9.48;;;5.78;;
42364;SDS011;28498;54.400;18.566;2023-03-03T21:54:48;11.07;;;5.82;;
42364;SDS011;28498;54.400;18.566;2023-03-03T21:57:16;10.93;;;7.07;;
42364;SDS011;28498;54.400;18.566;2023-03-03T21:59:43;10.85;;;5.63;;
42364;SDS011;28498;54.400;18.566;2023-03-03T22:02:10;13.55;;;6.75;;
42364;SDS011;28498;54.400;18.566;2023-03-03T22:04:38;12.10;;;6.82;;
42364;SDS011;28498;54.400;18.566;2023-03-03T22:07:06;14.27;;;7.07;;
42364;SDS011;28498;54.400;18.566;2023-03-03T22:09:33;11.95;;;6.97;;
42364;SDS011;28498;54.400;18.566;2023-03-03T22:12:01;13.95;;;6.97;;
42364;SDS011;28498;54.400;18.566;2023-03-03T22:14:28;12.88;;;7.05;;
42364;SDS011;28498;54.400;18.566;2023-03-03T22:16:55;12.48;;;7.38;;
42364;SDS011;28498;54.400;18.566;2023-03-03T22:19:22;12.32;;;7.82;;
42364;SDS011;28498;54.400;18.566;2023-03-03T22:21:48;11.10;;;6.03;;
42364;SDS011;28498;54.400;18.566;2023-03-03T22:24:16;16.13;;;7.65;;
42364;SDS011;28498;54.400;18.566;2023-03-03T22:26:43;14.10;;;8.18;;
42364;SDS011;28498;54.400;18.566;2023-03-03T22:29:10;13.50;;;6.75;;
42364;SDS011;28498;54.400;18.566;2023-03-03T22:31:37;17.60;;;8.32;;
42364;SDS011;28498;54.400;18.566;2023-03-03T22:34:04;14.95;;;8.10;;
42364;SDS011;28498;54.400;18.566;2023-03-03T22:36:31;16.73;;;7.70;;
42364;SDS011;28498;54.400;18.566;2023-03-03T22:38:58;11.70;;;6.55;;
42364;SDS011;28498;54.400;18.566;2023-03-03T22:41:26;13.95;;;7.38;;
42364;SDS011;28498;54.400;18.566;2023-03-03T22:43:53;14.82;;;7.63;;
42364;SDS011;28498;54.400;18.566;2023-03-03T22:46:20;12.70;;;7.68;;
42364;SDS011;28498;54.400;18.566;2023-03-03T22:48:47;11.25;;;7.03;;
42364;SDS011;28498;54.400;18.566;2023-03-03T22:51:14;11.75;;;7.50;;
42364;SDS011;28498;54.400;18.566;2023-03-03T22:53:41;13.20;;;7.93;;
42364;SDS011;28498;54.400;18.566;2023-03-03T22:56:08;14.60;;;8.15;;
42364;SDS011;28498;54.400;18.566;2023-03-03T22:58:35;13.35;;;7.65;;
42364;SDS011;28498;54.400;18.566;2023-03-03T23:01:02;15.45;;;8.13;;
42364;SDS011;28498;54.400;18.566;2023-03-03T23:03:30;14.85;;;7.15;;